Terminal Aerodrome Forecast
Issued by NWS

Home | Current Version | Previous Version | Text Only | Print | Product List | Glossary On
Versions: 1 2 3 4 5 6 7 8 9 10 11 12 13 14
000
FTUS44 KOUN 241720
TAFPNC
TAF
KPNC 241720Z 2418/2518 32020G29KT P6SM BKN028 BKN060
     FM242100 32017G24KT P6SM SCT028 SCT100
     FM250000 33011KT P6SM SKC=

USA.gov is the U.S. government's official web portal to all federal, state and local government web resources and services.